sensor_id;sensor_type;location;lat;lon;timestamp;P1;durP1;ratioP1;P2;durP2;ratioP2
60502;SDS011;51448;51.660;5.824;2023-07-16T00:00:21;7.28;;;2.92;;
60502;SDS011;51448;51.660;5.824;2023-07-16T00:02:53;5.80;;;2.90;;
60502;SDS011;51448;51.660;5.824;2023-07-16T00:05:21;6.13;;;2.70;;
60502;SDS011;51448;51.660;5.824;2023-07-16T00:07:49;5.95;;;2.40;;
60502;SDS011;51448;51.660;5.824;2023-07-16T00:10:17;7.85;;;2.90;;
60502;SDS011;51448;51.660;5.824;2023-07-16T00:12:44;6.85;;;2.75;;
60502;SDS011;51448;51.660;5.824;2023-07-16T00:15:12;5.32;;;2.33;;
60502;SDS011;51448;51.660;5.824;2023-07-16T00:17:39;8.10;;;2.72;;
60502;SDS011;51448;51.660;5.824;2023-07-16T00:20:07;7.47;;;2.30;;
60502;SDS011;51448;51.660;5.824;2023-07-16T00:22:36;10.27;;;2.55;;
60502;SDS011;51448;51.660;5.824;2023-07-16T00:25:06;5.05;;;2.25;;
60502;SDS011;51448;51.660;5.824;2023-07-16T00:27:34;6.10;;;2.45;;
60502;SDS011;51448;51.660;5.824;2023-07-16T00:30:02;5.93;;;2.33;;
60502;SDS011;51448;51.660;5.824;2023-07-16T00:32:31;8.27;;;2.63;;
60502;SDS011;51448;51.660;5.824;2023-07-16T00:34:58;6.22;;;2.42;;
60502;SDS011;51448;51.660;5.824;2023-07-16T00:37:26;5.90;;;2.20;;
60502;SDS011;51448;51.660;5.824;2023-07-16T00:39:53;8.63;;;2.53;;
60502;SDS011;51448;51.660;5.824;2023-07-16T00:42:22;6.32;;;2.40;;
60502;SDS011;51448;51.660;5.824;2023-07-16T00:44:51;5.47;;;2.22;;
60502;SDS011;51448;51.660;5.824;2023-07-16T00:47:19;7.90;;;3.03;;
60502;SDS011;51448;51.660;5.824;2023-07-16T00:49:49;8.23;;;2.80;;
60502;SDS011;51448;51.660;5.824;2023-07-16T00:52:19;6.40;;;2.75;;
60502;SDS011;51448;51.660;5.824;2023-07-16T00:54:49;5.68;;;2.80;;
60502;SDS011;51448;51.660;5.824;2023-07-16T00:57:17;8.60;;;3.15;;
60502;SDS011;51448;51.660;5.824;2023-07-16T00:59:45;8.20;;;2.80;;
60502;SDS011;51448;51.660;5.824;2023-07-16T01:02:12;7.05;;;2.90;;
60502;SDS011;51448;51.660;5.824;2023-07-16T01:04:40;6.13;;;2.83;;
60502;SDS011;51448;51.660;5.824;2023-07-16T01:07:08;6.65;;;2.63;;
60502;SDS011;51448;51.660;5.824;2023-07-16T01:09:44;8.50;;;2.97;;
60502;SDS011;51448;51.660;5.824;2023-07-16T01:12:12;6.95;;;2.45;;
60502;SDS011;51448;51.660;5.824;2023-07-16T01:14:41;6.07;;;2.75;;
60502;SDS011;51448;51.660;5.824;2023-07-16T01:17:09;8.60;;;2.90;;
60502;SDS011;51448;51.660;5.824;2023-07-16T01:19:36;8.27;;;3.17;;
60502;SDS011;51448;51.660;5.824;2023-07-16T01:22:35;5.65;;;2.65;;
60502;SDS011;51448;51.660;5.824;2023-07-16T01:25:39;7.65;;;2.97;;
60502;SDS011;51448;51.660;5.824;2023-07-16T01:28:39;6.63;;;2.75;;
60502;SDS011;51448;51.660;5.824;2023-07-16T01:34:05;6.38;;;2.70;;
60502;SDS011;51448;51.660;5.824;2023-07-16T01:36:34;7.68;;;2.92;;
60502;SDS011;51448;51.660;5.824;2023-07-16T01:39:05;9.13;;;3.10;;
60502;SDS011;51448;51.660;5.824;2023-07-16T01:41:33;6.05;;;2.63;;
60502;SDS011;51448;51.660;5.824;2023-07-16T01:44:00;6.43;;;3.22;;
60502;SDS011;51448;51.660;5.824;2023-07-16T01:46:29;7.70;;;2.65;;
60502;SDS011;51448;51.660;5.824;2023-07-16T01:48:57;6.50;;;2.90;;
60502;SDS011;51448;51.660;5.824;2023-07-16T01:51:25;6.03;;;2.80;;
60502;SDS011;51448;51.660;5.824;2023-07-16T01:53:52;5.88;;;2.67;;
60502;SDS011;51448;51.660;5.824;2023-07-16T01:56:20;7.32;;;2.85;;
60502;SDS011;51448;51.660;5.824;2023-07-16T01:58:47;5.32;;;2.72;;
60502;SDS011;51448;51.660;5.824;2023-07-16T02:01:17;8.27;;;2.92;;
60502;SDS011;51448;51.660;5.824;2023-07-16T02:03:45;7.82;;;3.00;;
60502;SDS011;51448;51.660;5.824;2023-07-16T02:06:12;8.05;;;3.10;;
60502;SDS011;51448;51.660;5.824;2023-07-16T02:08:42;6.30;;;2.92;;
60502;SDS011;51448;51.660;5.824;2023-07-16T02:11:10;6.07;;;2.88;;
60502;SDS011;51448;51.660;5.824;2023-07-16T02:13:37;8.18;;;3.25;;
60502;SDS011;51448;51.660;5.824;2023-07-16T02:16:05;7.28;;;3.08;;
60502;SDS011;51448;51.660;5.824;2023-07-16T02:18:32;9.45;;;3.47;;
60502;SDS011;51448;51.660;5.824;2023-07-16T02:21:00;10.00;;;3.03;;
60502;SDS011;51448;51.660;5.824;2023-07-16T02:23:29;7.93;;;3.03;;
60502;SDS011;51448;51.660;5.824;2023-07-16T02:25:56;10.63;;;3.38;;
60502;SDS011;51448;51.660;5.824;2023-07-16T02:28:24;6.53;;;2.67;;
60502;SDS011;51448;51.660;5.824;2023-07-16T02:30:52;7.15;;;2.50;;
60502;SDS011;51448;51.660;5.824;2023-07-16T02:33:20;9.35;;;2.92;;
60502;SDS011;51448;51.660;5.824;2023-07-16T02:35:48;8.02;;;3.03;;
60502;SDS011;51448;51.660;5.824;2023-07-16T02:38:18;8.65;;;3.13;;
60502;SDS011;51448;51.660;5.824;2023-07-16T02:40:47;7.28;;;2.78;;
60502;SDS011;51448;51.660;5.824;2023-07-16T02:43:15;7.00;;;2.75;;
60502;SDS011;51448;51.660;5.824;2023-07-16T02:45:45;8.07;;;2.78;;
60502;SDS011;51448;51.660;5.824;2023-07-16T02:48:12;6.25;;;2.70;;
60502;SDS011;51448;51.660;5.824;2023-07-16T02:50:41;7.47;;;3.10;;
60502;SDS011;51448;51.660;5.824;2023-07-16T02:53:09;7.03;;;3.05;;
60502;SDS011;51448;51.660;5.824;2023-07-16T02:55:37;8.90;;;2.97;;
60502;SDS011;51448;51.660;5.824;2023-07-16T02:58:08;7.88;;;2.88;;
60502;SDS011;51448;51.660;5.824;2023-07-16T03:00:38;8.55;;;3.92;;
60502;SDS011;51448;51.660;5.824;2023-07-16T03:03:06;8.30;;;2.97;;
60502;SDS011;51448;51.660;5.824;2023-07-16T03:05:34;6.90;;;2.63;;
60502;SDS011;51448;51.660;5.824;2023-07-16T03:08:01;6.10;;;3.10;;
60502;SDS011;51448;51.660;5.824;2023-07-16T03:10:30;9.60;;;3.15;;
60502;SDS011;51448;51.660;5.824;2023-07-16T03:12:57;8.20;;;3.15;;
60502;SDS011;51448;51.660;5.824;2023-07-16T03:15:25;6.20;;;3.05;;
60502;SDS011;51448;51.660;5.824;2023-07-16T03:17:52;7.90;;;3.25;;
60502;SDS011;51448;51.660;5.824;2023-07-16T03:20:20;10.68;;;3.30;;
60502;SDS011;51448;51.660;5.824;2023-07-16T03:22:48;7.47;;;2.83;;
60502;SDS011;51448;51.660;5.824;2023-07-16T03:25:16;7.45;;;2.75;;
60502;SDS011;51448;51.660;5.824;2023-07-16T03:27:44;7.95;;;3.80;;
60502;SDS011;51448;51.660;5.824;2023-07-16T03:30:11;8.80;;;3.00;;
60502;SDS011;51448;51.660;5.824;2023-07-16T03:32:39;7.68;;;3.00;;
60502;SDS011;51448;51.660;5.824;2023-07-16T03:35:19;9.05;;;3.20;;
60502;SDS011;51448;51.660;5.824;2023-07-16T03:37:47;8.27;;;3.05;;
60502;SDS011;51448;51.660;5.824;2023-07-16T03:40:16;8.85;;;3.30;;
60502;SDS011;51448;51.660;5.824;2023-07-16T03:42:49;8.80;;;3.03;;
60502;SDS011;51448;51.660;5.824;2023-07-16T03:45:16;8.40;;;3.17;;
60502;SDS011;51448;51.660;5.824;2023-07-16T03:47:44;9.23;;;3.22;;
60502;SDS011;51448;51.660;5.824;2023-07-16T03:50:12;9.23;;;3.30;;
60502;SDS011;51448;51.660;5.824;2023-07-16T03:52:40;9.48;;;3.42;;
60502;SDS011;51448;51.660;5.824;2023-07-16T03:55:07;9.15;;;3.13;;
60502;SDS011;51448;51.660;5.824;2023-07-16T03:57:35;7.32;;;2.92;;
60502;SDS011;51448;51.660;5.824;2023-07-16T04:00:04;9.05;;;3.38;;
60502;SDS011;51448;51.660;5.824;2023-07-16T04:02:41;9.57;;;3.78;;
60502;SDS011;51448;51.660;5.824;2023-07-16T04:05:14;7.50;;;3.55;;
60502;SDS011;51448;51.660;5.824;2023-07-16T04:07:42;8.05;;;3.08;;
60502;SDS011;51448;51.660;5.824;2023-07-16T04:10:09;9.73;;;3.40;;
60502;SDS011;51448;51.660;5.824;2023-07-16T04:12:37;8.13;;;3.33;;
60502;SDS011;51448;51.660;5.824;2023-07-16T04:15:06;8.90;;;3.40;;
60502;SDS011;51448;51.660;5.824;2023-07-16T04:17:38;6.53;;;2.80;;
60502;SDS011;51448;51.660;5.824;2023-07-16T04:20:06;8.95;;;3.03;;
60502;SDS011;51448;51.660;5.824;2023-07-16T04:22:34;7.68;;;3.22;;
60502;SDS011;51448;51.660;5.824;2023-07-16T04:25:03;11.00;;;3.00;;
60502;SDS011;51448;51.660;5.824;2023-07-16T04:27:31;10.07;;;3.35;;
60502;SDS011;51448;51.660;5.824;2023-07-16T04:29:59;10.13;;;3.50;;
60502;SDS011;51448;51.660;5.824;2023-07-16T04:32:26;13.48;;;3.53;;
60502;SDS011;51448;51.660;5.824;2023-07-16T04:34:54;9.80;;;3.22;;
60502;SDS011;51448;51.660;5.824;2023-07-16T04:37:21;8.48;;;3.50;;
60502;SDS011;51448;51.660;5.824;2023-07-16T04:39:49;9.93;;;3.28;;
60502;SDS011;51448;51.660;5.824;2023-07-16T04:42:17;11.02;;;3.35;;
60502;SDS011;51448;51.660;5.824;2023-07-16T04:44:45;9.38;;;3.53;;
60502;SDS011;51448;51.660;5.824;2023-07-16T04:47:12;12.23;;;3.58;;
60502;SDS011;51448;51.660;5.824;2023-07-16T04:49:40;12.20;;;4.07;;
60502;SDS011;51448;51.660;5.824;2023-07-16T04:52:07;9.10;;;3.42;;
60502;SDS011;51448;51.660;5.824;2023-07-16T04:54:36;9.55;;;3.65;;
60502;SDS011;51448;51.660;5.824;2023-07-16T04:57:05;11.90;;;4.18;;
60502;SDS011;51448;51.660;5.824;2023-07-16T04:59:34;6.90;;;3.45;;
60502;SDS011;51448;51.660;5.824;2023-07-16T05:02:08;15.15;;;4.43;;
60502;SDS011;51448;51.660;5.824;2023-07-16T05:04:36;8.47;;;3.70;;
60502;SDS011;51448;51.660;5.824;2023-07-16T05:07:04;10.07;;;3.63;;
60502;SDS011;51448;51.660;5.824;2023-07-16T05:09:32;7.78;;;3.65;;
60502;SDS011;51448;51.660;5.824;2023-07-16T05:11:59;9.75;;;4.18;;
60502;SDS011;51448;51.660;5.824;2023-07-16T05:14:28;11.70;;;4.55;;
60502;SDS011;51448;51.660;5.824;2023-07-16T05:16:56;9.27;;;3.72;;
60502;SDS011;51448;51.660;5.824;2023-07-16T05:19:24;8.32;;;3.80;;
60502;SDS011;51448;51.660;5.824;2023-07-16T05:21:51;7.75;;;3.97;;
60502;SDS011;51448;51.660;5.824;2023-07-16T05:24:19;11.63;;;4.15;;
60502;SDS011;51448;51.660;5.824;2023-07-16T05:26:47;10.80;;;4.53;;
60502;SDS011;51448;51.660;5.824;2023-07-16T05:29:15;10.77;;;4.15;;
60502;SDS011;51448;51.660;5.824;2023-07-16T05:31:43;11.90;;;4.25;;
60502;SDS011;51448;51.660;5.824;2023-07-16T05:34:15;11.55;;;4.63;;
60502;SDS011;51448;51.660;5.824;2023-07-16T05:36:43;11.60;;;4.68;;
60502;SDS011;51448;51.660;5.824;2023-07-16T05:39:13;13.13;;;4.43;;
60502;SDS011;51448;51.660;5.824;2023-07-16T05:41:41;8.65;;;5.00;;
60502;SDS011;51448;51.660;5.824;2023-07-16T05:44:28;14.68;;;4.60;;
60502;SDS011;51448;51.660;5.824;2023-07-16T05:46:56;11.95;;;4.75;;
60502;SDS011;51448;51.660;5.824;2023-07-16T05:49:24;12.05;;;4.30;;
60502;SDS011;51448;51.660;5.824;2023-07-16T05:51:54;10.55;;;4.65;;
60502;SDS011;51448;51.660;5.824;2023-07-16T05:54:23;14.85;;;4.65;;
60502;SDS011;51448;51.660;5.824;2023-07-16T05:56:50;10.02;;;4.32;;
60502;SDS011;51448;51.660;5.824;2023-07-16T05:59:18;11.35;;;4.72;;
60502;SDS011;51448;51.660;5.824;2023-07-16T06:01:46;13.30;;;4.93;;
60502;SDS011;51448;51.660;5.824;2023-07-16T06:04:13;13.95;;;4.80;;
60502;SDS011;51448;51.660;5.824;2023-07-16T06:06:41;11.38;;;5.00;;
60502;SDS011;51448;51.660;5.824;2023-07-16T06:09:08;11.82;;;4.97;;
60502;SDS011;51448;51.660;5.824;2023-07-16T06:11:36;11.45;;;4.72;;
60502;SDS011;51448;51.660;5.824;2023-07-16T06:14:03;12.18;;;5.53;;
60502;SDS011;51448;51.660;5.824;2023-07-16T06:16:31;11.70;;;4.97;;
60502;SDS011;51448;51.660;5.824;2023-07-16T06:18:59;10.90;;;4.90;;
60502;SDS011;51448;51.660;5.824;2023-07-16T06:21:29;12.93;;;5.30;;
60502;SDS011;51448;51.660;5.824;2023-07-16T06:23:57;11.67;;;4.73;;
60502;SDS011;51448;51.660;5.824;2023-07-16T06:26:24;10.65;;;5.13;;
60502;SDS011;51448;51.660;5.824;2023-07-16T06:28:52;12.63;;;5.20;;
60502;SDS011;51448;51.660;5.824;2023-07-16T06:31:20;11.13;;;5.07;;
60502;SDS011;51448;51.660;5.824;2023-07-16T06:33:53;10.35;;;5.03;;
60502;SDS011;51448;51.660;5.824;2023-07-16T06:36:20;12.50;;;5.63;;
60502;SDS011;51448;51.660;5.824;2023-07-16T06:38:48;10.88;;;5.38;;
60502;SDS011;51448;51.660;5.824;2023-07-16T06:41:21;10.40;;;5.18;;
60502;SDS011;51448;51.660;5.824;2023-07-16T06:43:49;13.38;;;5.07;;
60502;SDS011;51448;51.660;5.824;2023-07-16T06:46:16;11.10;;;4.70;;
60502;SDS011;51448;51.660;5.824;2023-07-16T06:48:45;10.10;;;4.82;;
60502;SDS011;51448;51.660;5.824;2023-07-16T06:51:12;12.38;;;4.75;;
60502;SDS011;51448;51.660;5.824;2023-07-16T06:53:40;12.45;;;5.03;;
60502;SDS011;51448;51.660;5.824;2023-07-16T06:56:07;10.85;;;5.13;;
60502;SDS011;51448;51.660;5.824;2023-07-16T06:58:35;11.98;;;5.15;;
60502;SDS011;51448;51.660;5.824;2023-07-16T07:01:02;11.95;;;5.20;;
60502;SDS011;51448;51.660;5.824;2023-07-16T07:03:30;12.02;;;5.15;;
60502;SDS011;51448;51.660;5.824;2023-07-16T07:06:03;12.20;;;4.80;;
60502;SDS011;51448;51.660;5.824;2023-07-16T07:08:31;12.50;;;4.70;;
60502;SDS011;51448;51.660;5.824;2023-07-16T07:10:58;11.88;;;4.72;;
60502;SDS011;51448;51.660;5.824;2023-07-16T07:13:28;12.23;;;5.22;;
60502;SDS011;51448;51.660;5.824;2023-07-16T07:15:56;9.63;;;5.28;;
60502;SDS011;51448;51.660;5.824;2023-07-16T07:18:24;10.95;;;5.20;;
60502;SDS011;51448;51.660;5.824;2023-07-16T07:20:52;11.45;;;4.57;;
60502;SDS011;51448;51.660;5.824;2023-07-16T07:23:25;9.77;;;5.10;;
60502;SDS011;51448;51.660;5.824;2023-07-16T07:25:53;13.95;;;5.20;;
60502;SDS011;51448;51.660;5.824;2023-07-16T07:28:21;12.20;;;5.32;;
60502;SDS011;51448;51.660;5.824;2023-07-16T07:30:48;10.50;;;5.57;;
60502;SDS011;51448;51.660;5.824;2023-07-16T07:33:16;12.93;;;5.25;;
60502;SDS011;51448;51.660;5.824;2023-07-16T07:35:43;10.65;;;4.65;;
60502;SDS011;51448;51.660;5.824;2023-07-16T07:38:11;10.15;;;5.47;;
60502;SDS011;51448;51.660;5.824;2023-07-16T07:40:38;14.63;;;5.80;;
60502;SDS011;51448;51.660;5.824;2023-07-16T07:43:09;11.52;;;5.10;;
60502;SDS011;51448;51.660;5.824;2023-07-16T07:45:37;9.15;;;5.35;;
60502;SDS011;51448;51.660;5.824;2023-07-16T07:48:04;11.73;;;5.68;;
60502;SDS011;51448;51.660;5.824;2023-07-16T07:50:32;10.13;;;5.20;;
60502;SDS011;51448;51.660;5.824;2023-07-16T07:53:00;10.77;;;5.38;;
60502;SDS011;51448;51.660;5.824;2023-07-16T07:55:27;12.02;;;5.18;;
60502;SDS011;51448;51.660;5.824;2023-07-16T07:57:55;12.90;;;5.28;;
60502;SDS011;51448;51.660;5.824;2023-07-16T08:00:23;13.35;;;4.72;;
60502;SDS011;51448;51.660;5.824;2023-07-16T08:02:50;11.15;;;5.43;;
60502;SDS011;51448;51.660;5.824;2023-07-16T08:05:18;10.45;;;5.30;;
60502;SDS011;51448;51.660;5.824;2023-07-16T08:07:46;10.10;;;4.60;;
60502;SDS011;51448;51.660;5.824;2023-07-16T08:10:14;11.38;;;5.20;;
60502;SDS011;51448;51.660;5.824;2023-07-16T08:12:41;12.18;;;4.97;;
60502;SDS011;51448;51.660;5.824;2023-07-16T08:15:10;11.27;;;4.82;;
60502;SDS011;51448;51.660;5.824;2023-07-16T08:17:42;10.38;;;4.70;;
60502;SDS011;51448;51.660;5.824;2023-07-16T08:20:11;11.98;;;5.63;;
60502;SDS011;51448;51.660;5.824;2023-07-16T08:22:39;9.80;;;4.90;;
60502;SDS011;51448;51.660;5.824;2023-07-16T08:25:07;11.05;;;4.82;;
60502;SDS011;51448;51.660;5.824;2023-07-16T08:27:35;10.10;;;4.82;;
60502;SDS011;51448;51.660;5.824;2023-07-16T08:30:04;9.38;;;4.47;;
60502;SDS011;51448;51.660;5.824;2023-07-16T08:32:33;10.05;;;4.78;;
60502;SDS011;51448;51.660;5.824;2023-07-16T08:35:00;9.52;;;4.70;;
60502;SDS011;51448;51.660;5.824;2023-07-16T08:37:28;11.35;;;4.70;;
60502;SDS011;51448;51.660;5.824;2023-07-16T08:39:56;12.73;;;4.82;;
60502;SDS011;51448;51.660;5.824;2023-07-16T08:42:23;12.00;;;4.15;;
60502;SDS011;51448;51.660;5.824;2023-07-16T08:44:51;11.75;;;5.10;;
60502;SDS011;51448;51.660;5.824;2023-07-16T08:47:19;9.73;;;4.13;;
60502;SDS011;51448;51.660;5.824;2023-07-16T08:49:56;12.15;;;4.50;;
60502;SDS011;51448;51.660;5.824;2023-07-16T08:52:24;8.68;;;4.32;;
60502;SDS011;51448;51.660;5.824;2023-07-16T08:54:54;12.52;;;4.70;;
60502;SDS011;51448;51.660;5.824;2023-07-16T08:57:22;8.52;;;4.13;;
60502;SDS011;51448;51.660;5.824;2023-07-16T08:59:50;9.82;;;4.05;;
60502;SDS011;51448;51.660;5.824;2023-07-16T09:02:19;8.60;;;4.45;;
60502;SDS011;51448;51.660;5.824;2023-07-16T09:04:48;9.23;;;4.22;;
60502;SDS011;51448;51.660;5.824;2023-07-16T09:07:20;11.05;;;4.40;;
60502;SDS011;51448;51.660;5.824;2023-07-16T09:09:59;15.63;;;4.90;;
60502;SDS011;51448;51.660;5.824;2023-07-16T09:12:27;12.30;;;4.00;;
60502;SDS011;51448;51.660;5.824;2023-07-16T09:14:56;9.38;;;4.25;;
60502;SDS011;51448;51.660;5.824;2023-07-16T09:17:24;9.52;;;4.88;;
60502;SDS011;51448;51.660;5.824;2023-07-16T09:19:53;7.85;;;3.92;;
60502;SDS011;51448;51.660;5.824;2023-07-16T09:22:20;8.20;;;4.32;;
60502;SDS011;51448;51.660;5.824;2023-07-16T09:24:49;8.05;;;3.83;;
60502;SDS011;51448;51.660;5.824;2023-07-16T09:27:16;10.18;;;4.00;;
60502;SDS011;51448;51.660;5.824;2023-07-16T09:29:44;8.90;;;4.13;;
60502;SDS011;51448;51.660;5.824;2023-07-16T09:32:11;9.25;;;4.43;;
60502;SDS011;51448;51.660;5.824;2023-07-16T09:34:39;10.02;;;4.25;;
60502;SDS011;51448;51.660;5.824;2023-07-16T09:37:07;8.95;;;3.58;;
60502;SDS011;51448;51.660;5.824;2023-07-16T09:39:35;9.38;;;4.35;;
60502;SDS011;51448;51.660;5.824;2023-07-16T09:42:04;8.10;;;3.60;;
60502;SDS011;51448;51.660;5.824;2023-07-16T09:44:33;10.68;;;4.28;;
60502;SDS011;51448;51.660;5.824;2023-07-16T09:47:01;11.60;;;4.68;;
60502;SDS011;51448;51.660;5.824;2023-07-16T09:49:29;8.68;;;3.97;;
60502;SDS011;51448;51.660;5.824;2023-07-16T09:52:00;8.38;;;4.13;;
60502;SDS011;51448;51.660;5.824;2023-07-16T09:54:32;9.07;;;4.55;;
60502;SDS011;51448;51.660;5.824;2023-07-16T09:57:03;9.30;;;4.20;;
60502;SDS011;51448;51.660;5.824;2023-07-16T09:59:33;9.13;;;4.25;;
60502;SDS011;51448;51.660;5.824;2023-07-16T10:02:02;6.95;;;3.67;;
60502;SDS011;51448;51.660;5.824;2023-07-16T10:04:38;8.27;;;3.67;;
60502;SDS011;51448;51.660;5.824;2023-07-16T10:07:07;9.85;;;3.67;;
60502;SDS011;51448;51.660;5.824;2023-07-16T10:09:51;8.20;;;3.95;;
60502;SDS011;51448;51.660;5.824;2023-07-16T10:12:23;8.07;;;4.13;;
60502;SDS011;51448;51.660;5.824;2023-07-16T10:14:54;8.43;;;3.90;;
60502;SDS011;51448;51.660;5.824;2023-07-16T10:17:32;7.78;;;3.72;;
60502;SDS011;51448;51.660;5.824;2023-07-16T10:20:02;8.95;;;3.60;;
60502;SDS011;51448;51.660;5.824;2023-07-16T10:22:38;7.30;;;3.38;;
60502;SDS011;51448;51.660;5.824;2023-07-16T10:25:21;9.48;;;4.15;;
60502;SDS011;51448;51.660;5.824;2023-07-16T10:27:51;7.25;;;3.65;;
60502;SDS011;51448;51.660;5.824;2023-07-16T10:30:21;8.02;;;3.97;;
60502;SDS011;51448;51.660;5.824;2023-07-16T10:32:50;10.20;;;4.22;;
60502;SDS011;51448;51.660;5.824;2023-07-16T10:35:20;6.85;;;2.92;;
60502;SDS011;51448;51.660;5.824;2023-07-16T10:37:48;8.35;;;3.67;;
60502;SDS011;51448;51.660;5.824;2023-07-16T10:40:16;7.35;;;3.35;;
60502;SDS011;51448;51.660;5.824;2023-07-16T10:42:44;10.77;;;3.80;;
60502;SDS011;51448;51.660;5.824;2023-07-16T10:45:14;5.50;;;2.95;;
60502;SDS011;51448;51.660;5.824;2023-07-16T10:47:50;7.40;;;3.10;;
60502;SDS011;51448;51.660;5.824;2023-07-16T10:50:20;8.30;;;3.22;;
60502;SDS011;51448;51.660;5.824;2023-07-16T10:52:53;8.25;;;3.80;;
60502;SDS011;51448;51.660;5.824;2023-07-16T10:55:23;6.40;;;3.53;;
60502;SDS011;51448;51.660;5.824;2023-07-16T10:57:53;10.75;;;3.28;;
60502;SDS011;51448;51.660;5.824;2023-07-16T11:00:23;8.15;;;3.30;;
60502;SDS011;51448;51.660;5.824;2023-07-16T11:02:50;6.78;;;3.30;;
60502;SDS011;51448;51.660;5.824;2023-07-16T11:05:18;10.00;;;3.55;;
60502;SDS011;51448;51.660;5.824;2023-07-16T11:07:47;10.20;;;3.25;;
60502;SDS011;51448;51.660;5.824;2023-07-16T11:10:22;8.13;;;3.47;;
60502;SDS011;51448;51.660;5.824;2023-07-16T11:12:52;6.63;;;3.65;;
60502;SDS011;51448;51.660;5.824;2023-07-16T11:17:58;10.32;;;3.20;;
60502;SDS011;51448;51.660;5.824;2023-07-16T11:20:26;7.85;;;3.38;;
60502;SDS011;51448;51.660;5.824;2023-07-16T11:22:54;6.88;;;3.10;;
60502;SDS011;51448;51.660;5.824;2023-07-16T11:25:25;6.60;;;3.22;;
60502;SDS011;51448;51.660;5.824;2023-07-16T11:27:56;7.15;;;2.85;;
60502;SDS011;51448;51.660;5.824;2023-07-16T11:30:27;8.27;;;3.40;;
60502;SDS011;51448;51.660;5.824;2023-07-16T11:32:57;8.20;;;3.70;;
60502;SDS011;51448;51.660;5.824;2023-07-16T11:35:26;6.70;;;3.47;;
60502;SDS011;51448;51.660;5.824;2023-07-16T11:37:56;11.23;;;3.80;;
60502;SDS011;51448;51.660;5.824;2023-07-16T11:40:24;7.90;;;2.90;;
60502;SDS011;51448;51.660;5.824;2023-07-16T11:42:52;7.70;;;3.20;;
60502;SDS011;51448;51.660;5.824;2023-07-16T11:45:21;8.40;;;3.00;;
60502;SDS011;51448;51.660;5.824;2023-07-16T11:47:54;8.23;;;3.75;;
60502;SDS011;51448;51.660;5.824;2023-07-16T11:50:22;10.77;;;4.07;;
60502;SDS011;51448;51.660;5.824;2023-07-16T11:52:54;9.80;;;3.50;;
60502;SDS011;51448;51.660;5.824;2023-07-16T11:55:27;7.97;;;3.35;;
60502;SDS011;51448;51.660;5.824;2023-07-16T11:57:54;7.53;;;3.47;;
60502;SDS011;51448;51.660;5.824;2023-07-16T12:00:24;7.28;;;3.25;;
60502;SDS011;51448;51.660;5.824;2023-07-16T12:02:52;9.32;;;3.75;;
60502;SDS011;51448;51.660;5.824;2023-07-16T12:05:20;7.55;;;3.72;;
60502;SDS011;51448;51.660;5.824;2023-07-16T12:08:10;8.43;;;3.50;;
60502;SDS011;51448;51.660;5.824;2023-07-16T12:10:41;7.40;;;3.30;;
60502;SDS011;51448;51.660;5.824;2023-07-16T12:13:11;9.05;;;3.75;;
60502;SDS011;51448;51.660;5.824;2023-07-16T12:15:53;8.10;;;3.70;;
60502;SDS011;51448;51.660;5.824;2023-07-16T12:18:23;8.02;;;3.05;;
60502;SDS011;51448;51.660;5.824;2023-07-16T12:20:50;8.45;;;3.42;;
60502;SDS011;51448;51.660;5.824;2023-07-16T12:23:18;9.55;;;3.40;;
60502;SDS011;51448;51.660;5.824;2023-07-16T12:25:47;8.98;;;3.78;;
60502;SDS011;51448;51.660;5.824;2023-07-16T12:28:17;6.90;;;3.20;;
60502;SDS011;51448;51.660;5.824;2023-07-16T12:30:44;8.43;;;3.72;;
60502;SDS011;51448;51.660;5.824;2023-07-16T12:33:12;8.10;;;3.40;;
60502;SDS011;51448;51.660;5.824;2023-07-16T12:35:39;8.15;;;3.25;;
60502;SDS011;51448;51.660;5.824;2023-07-16T12:38:07;10.88;;;3.80;;
60502;SDS011;51448;51.660;5.824;2023-07-16T12:40:34;8.25;;;3.47;;
60502;SDS011;51448;51.660;5.824;2023-07-16T12:43:06;8.73;;;3.58;;
60502;SDS011;51448;51.660;5.824;2023-07-16T12:45:34;8.63;;;3.95;;
60502;SDS011;51448;51.660;5.824;2023-07-16T12:48:02;9.65;;;3.40;;
60502;SDS011;51448;51.660;5.824;2023-07-16T12:50:30;8.95;;;3.85;;
60502;SDS011;51448;51.660;5.824;2023-07-16T12:53:00;7.63;;;3.90;;
60502;SDS011;51448;51.660;5.824;2023-07-16T12:55:27;9.38;;;3.70;;
60502;SDS011;51448;51.660;5.824;2023-07-16T12:57:55;7.00;;;3.55;;
60502;SDS011;51448;51.660;5.824;2023-07-16T13:00:22;10.07;;;4.68;;
60502;SDS011;51448;51.660;5.824;2023-07-16T13:02:50;7.40;;;3.83;;
60502;SDS011;51448;51.660;5.824;2023-07-16T13:05:18;7.78;;;3.72;;
60502;SDS011;51448;51.660;5.824;2023-07-16T13:07:45;8.07;;;3.33;;
60502;SDS011;51448;51.660;5.824;2023-07-16T13:10:13;8.85;;;4.32;;
60502;SDS011;51448;51.660;5.824;2023-07-16T13:12:50;7.20;;;3.83;;
60502;SDS011;51448;51.660;5.824;2023-07-16T13:15:18;9.02;;;3.95;;
60502;SDS011;51448;51.660;5.824;2023-07-16T13:17:46;9.18;;;4.07;;
60502;SDS011;51448;51.660;5.824;2023-07-16T13:20:15;8.60;;;3.80;;
60502;SDS011;51448;51.660;5.824;2023-07-16T13:22:42;8.35;;;3.80;;
60502;SDS011;51448;51.660;5.824;2023-07-16T13:25:10;8.25;;;3.80;;
60502;SDS011;51448;51.660;5.824;2023-07-16T13:27:38;8.63;;;3.90;;
60502;SDS011;51448;51.660;5.824;2023-07-16T13:30:06;9.57;;;3.85;;
60502;SDS011;51448;51.660;5.824;2023-07-16T13:32:34;9.32;;;3.90;;
60502;SDS011;51448;51.660;5.824;2023-07-16T13:35:01;7.75;;;3.88;;
60502;SDS011;51448;51.660;5.824;2023-07-16T13:37:30;10.73;;;3.88;;
60502;SDS011;51448;51.660;5.824;2023-07-16T13:39:57;7.70;;;3.90;;
60502;SDS011;51448;51.660;5.824;2023-07-16T13:42:25;8.52;;;3.72;;
60502;SDS011;51448;51.660;5.824;2023-07-16T13:44:52;8.90;;;3.63;;
60502;SDS011;51448;51.660;5.824;2023-07-16T13:47:20;5.25;;;2.75;;
60502;SDS011;51448;51.660;5.824;2023-07-16T13:49:48;6.35;;;2.83;;
60502;SDS011;51448;51.660;5.824;2023-07-16T13:52:15;7.80;;;3.25;;
60502;SDS011;51448;51.660;5.824;2023-07-16T13:54:43;6.72;;;2.90;;
60502;SDS011;51448;51.660;5.824;2023-07-16T13:57:12;7.82;;;3.40;;
60502;SDS011;51448;51.660;5.824;2023-07-16T13:59:39;7.78;;;3.15;;
60502;SDS011;51448;51.660;5.824;2023-07-16T14:02:07;8.73;;;2.88;;
60502;SDS011;51448;51.660;5.824;2023-07-16T14:04:35;6.88;;;2.92;;
60502;SDS011;51448;51.660;5.824;2023-07-16T14:07:03;8.65;;;2.90;;
60502;SDS011;51448;51.660;5.824;2023-07-16T14:09:30;7.13;;;2.90;;
60502;SDS011;51448;51.660;5.824;2023-07-16T14:11:58;6.32;;;2.90;;
60502;SDS011;51448;51.660;5.824;2023-07-16T14:14:26;7.32;;;2.85;;
60502;SDS011;51448;51.660;5.824;2023-07-16T14:16:53;6.75;;;2.90;;
60502;SDS011;51448;51.660;5.824;2023-07-16T14:19:22;5.90;;;1.83;;
60502;SDS011;51448;51.660;5.824;2023-07-16T14:21:50;6.85;;;2.60;;
60502;SDS011;51448;51.660;5.824;2023-07-16T14:24:17;7.25;;;2.70;;
60502;SDS011;51448;51.660;5.824;2023-07-16T14:26:45;5.95;;;2.50;;
60502;SDS011;51448;51.660;5.824;2023-07-16T14:29:13;6.15;;;2.50;;
60502;SDS011;51448;51.660;5.824;2023-07-16T14:31:41;8.88;;;2.80;;
60502;SDS011;51448;51.660;5.824;2023-07-16T14:34:08;6.45;;;2.45;;
60502;SDS011;51448;51.660;5.824;2023-07-16T14:36:36;5.93;;;2.40;;
60502;SDS011;51448;51.660;5.824;2023-07-16T14:39:03;7.53;;;3.00;;
60502;SDS011;51448;51.660;5.824;2023-07-16T14:41:31;6.65;;;2.75;;
60502;SDS011;51448;51.660;5.824;2023-07-16T14:43:58;9.10;;;3.33;;
60502;SDS011;51448;51.660;5.824;2023-07-16T14:46:26;5.82;;;3.10;;
60502;SDS011;51448;51.660;5.824;2023-07-16T14:48:53;7.05;;;2.88;;
60502;SDS011;51448;51.660;5.824;2023-07-16T14:51:23;7.70;;;2.72;;
60502;SDS011;51448;51.660;5.824;2023-07-16T14:53:51;6.00;;;3.00;;
60502;SDS011;51448;51.660;5.824;2023-07-16T14:56:21;6.45;;;2.60;;
60502;SDS011;51448;51.660;5.824;2023-07-16T14:58:49;6.80;;;2.72;;